Terminal Aerodrome Forecast
Issued by NWS Jackson, KY

Home | Current Version | Previous Version | Text Only | Print | Product List | Glossary On
Versions: 1 2 3 4 5 6 7 8 9 10 11 12 13 14
237
FTUS43 KJKL 222330
TAFLOZ
TAF
KLOZ 222330Z 2300/2324 18013G21KT P6SM OVC025
     FM230400 23014G24KT P6SM -SHRA BKN030
     FM230600 24014G22KT P6SM BKN050
     FM231300 24014G22KT P6SM BKN030
     FM232300 26010KT P6SM OVC015=

USA.gov is the U.S. government's official web portal to all federal, state and local government web resources and services.